sensor_id;sensor_type;location;lat;lon;timestamp;pressure;altitude;pressure_sealevel;temperature;humidity
54389;BME280;40975;50.390;8.640;2022-08-23T00:00:40;99014.63;;;18.62;66.96
54389;BME280;40975;50.390;8.640;2022-08-23T00:03:05;99007.38;;;18.56;66.95
54389;BME280;40975;50.390;8.640;2022-08-23T00:05:32;99010.25;;;18.48;67.40
54389;BME280;40975;50.390;8.640;2022-08-23T00:07:57;99013.69;;;18.28;66.94
54389;BME280;40975;50.390;8.640;2022-08-23T00:10:23;99007.84;;;18.18;67.85
54389;BME280;40975;50.390;8.640;2022-08-23T00:12:48;98998.94;;;18.11;68.94
54389;BME280;40975;50.390;8.640;2022-08-23T00:15:15;99006.91;;;17.97;69.79
54389;BME280;40975;50.390;8.640;2022-08-23T00:17:41;99007.41;;;17.86;70.05
54389;BME280;40975;50.390;8.640;2022-08-23T00:20:11;98993.78;;;17.81;70.16
54389;BME280;40975;50.390;8.640;2022-08-23T00:22:37;99002.22;;;17.78;70.43
54389;BME280;40975;50.390;8.640;2022-08-23T00:25:06;99000.13;;;17.73;71.52
54389;BME280;40975;50.390;8.640;2022-08-23T00:27:32;98995.09;;;17.63;70.68
54389;BME280;40975;50.390;8.640;2022-08-23T00:29:58;99001.38;;;17.49;71.14
54389;BME280;40975;50.390;8.640;2022-08-23T00:32:27;98990.22;;;17.45;70.64
54389;BME280;40975;50.390;8.640;2022-08-23T00:34:53;98986.91;;;17.43;70.45
54389;BME280;40975;50.390;8.640;2022-08-23T00:37:20;98982.50;;;17.35;70.88
54389;BME280;40975;50.390;8.640;2022-08-23T00:39:46;98988.94;;;17.41;70.35
54389;BME280;40975;50.390;8.640;2022-08-23T00:45:19;98994.38;;;17.26;71.83
54389;BME280;40975;50.390;8.640;2022-08-23T00:48:06;98989.75;;;17.13;72.87
54389;BME280;40975;50.390;8.640;2022-08-23T00:53:26;98996.63;;;17.01;72.91
54389;BME280;40975;50.390;8.640;2022-08-23T00:55:57;98991.19;;;16.94;74.29
54389;BME280;40975;50.390;8.640;2022-08-23T00:58:23;99000.19;;;16.86;75.28
54389;BME280;40975;50.390;8.640;2022-08-23T01:00:50;98994.56;;;16.81;75.00
54389;BME280;40975;50.390;8.640;2022-08-23T01:03:19;98997.81;;;16.76;74.48
54389;BME280;40975;50.390;8.640;2022-08-23T01:05:47;98997.06;;;16.68;74.98
54389;BME280;40975;50.390;8.640;2022-08-23T01:08:13;98995.09;;;16.55;76.11
54389;BME280;40975;50.390;8.640;2022-08-23T01:10:44;98990.94;;;16.52;76.71
54389;BME280;40975;50.390;8.640;2022-08-23T01:13:15;98993.06;;;16.57;75.92
54389;BME280;40975;50.390;8.640;2022-08-23T01:15:45;98996.88;;;16.47;76.29
54389;BME280;40975;50.390;8.640;2022-08-23T01:18:14;98994.38;;;16.46;76.80
54389;BME280;40975;50.390;8.640;2022-08-23T01:20:48;98995.78;;;16.42;78.32
54389;BME280;40975;50.390;8.640;2022-08-23T01:23:40;98994.56;;;16.29;77.69
54389;BME280;40975;50.390;8.640;2022-08-23T01:26:06;98989.13;;;16.23;77.95
54389;BME280;40975;50.390;8.640;2022-08-23T01:28:36;98996.44;;;16.29;79.13
54389;BME280;40975;50.390;8.640;2022-08-23T01:31:01;98995.91;;;16.19;78.44
54389;BME280;40975;50.390;8.640;2022-08-23T01:33:28;98998.28;;;16.13;79.03
54389;BME280;40975;50.390;8.640;2022-08-23T01:35:56;98993.13;;;16.12;79.33
54389;BME280;40975;50.390;8.640;2022-08-23T01:38:23;98997.38;;;16.06;79.37
54389;BME280;40975;50.390;8.640;2022-08-23T01:40:49;98991.00;;;15.92;79.58
54389;BME280;40975;50.390;8.640;2022-08-23T01:43:15;98995.97;;;15.80;79.98
54389;BME280;40975;50.390;8.640;2022-08-23T01:45:45;98996.59;;;15.82;80.75
54389;BME280;40975;50.390;8.640;2022-08-23T01:48:12;98992.34;;;15.73;81.23
54389;BME280;40975;50.390;8.640;2022-08-23T01:50:38;98993.66;;;15.77;80.04
54389;BME280;40975;50.390;8.640;2022-08-23T01:53:04;98992.06;;;15.68;82.39
54389;BME280;40975;50.390;8.640;2022-08-23T01:55:30;98991.59;;;15.64;81.90
54389;BME280;40975;50.390;8.640;2022-08-23T01:57:57;98990.31;;;15.60;81.97
54389;BME280;40975;50.390;8.640;2022-08-23T02:00:28;98993.63;;;15.62;82.70
54389;BME280;40975;50.390;8.640;2022-08-23T02:02:55;98995.28;;;15.48;82.68
54389;BME280;40975;50.390;8.640;2022-08-23T02:05:21;98999.69;;;15.41;82.40
54389;BME280;40975;50.390;8.640;2022-08-23T02:07:46;98996.53;;;15.37;83.06
54389;BME280;40975;50.390;8.640;2022-08-23T02:10:13;99001.59;;;15.32;83.39
54389;BME280;40975;50.390;8.640;2022-08-23T02:12:38;98996.59;;;15.29;83.16
54389;BME280;40975;50.390;8.640;2022-08-23T02:15:10;98989.31;;;15.23;84.48
54389;BME280;40975;50.390;8.640;2022-08-23T02:17:40;98997.13;;;15.24;84.21
54389;BME280;40975;50.390;8.640;2022-08-23T02:20:06;98992.72;;;15.17;85.24
54389;BME280;40975;50.390;8.640;2022-08-23T02:22:33;98996.00;;;15.19;84.38
54389;BME280;40975;50.390;8.640;2022-08-23T02:24:59;98998.06;;;15.17;83.73
54389;BME280;40975;50.390;8.640;2022-08-23T02:27:24;98998.41;;;15.14;84.86
54389;BME280;40975;50.390;8.640;2022-08-23T02:29:50;99006.50;;;15.05;84.88
54389;BME280;40975;50.390;8.640;2022-08-23T02:32:16;98999.28;;;15.06;85.52
54389;BME280;40975;50.390;8.640;2022-08-23T02:34:43;98999.53;;;14.96;85.90
54389;BME280;40975;50.390;8.640;2022-08-23T02:37:10;99006.91;;;14.94;85.68
54389;BME280;40975;50.390;8.640;2022-08-23T02:39:36;99011.78;;;14.90;86.48
54389;BME280;40975;50.390;8.640;2022-08-23T02:42:02;99002.75;;;14.91;86.22
54389;BME280;40975;50.390;8.640;2022-08-23T02:44:30;99006.50;;;14.82;87.29
54389;BME280;40975;50.390;8.640;2022-08-23T02:47:00;99007.50;;;14.81;86.79
54389;BME280;40975;50.390;8.640;2022-08-23T02:49:27;99011.22;;;14.72;86.93
54389;BME280;40975;50.390;8.640;2022-08-23T02:51:53;99010.84;;;14.75;87.94
54389;BME280;40975;50.390;8.640;2022-08-23T02:54:18;99017.72;;;14.69;87.51
54389;BME280;40975;50.390;8.640;2022-08-23T02:56:44;99016.56;;;14.64;89.37
54389;BME280;40975;50.390;8.640;2022-08-23T02:59:10;99014.56;;;14.66;88.58
54389;BME280;40975;50.390;8.640;2022-08-23T03:01:37;99019.41;;;14.62;89.18
54389;BME280;40975;50.390;8.640;2022-08-23T03:04:16;99006.44;;;14.51;89.61
54389;BME280;40975;50.390;8.640;2022-08-23T03:06:42;99016.47;;;14.49;89.76
54389;BME280;40975;50.390;8.640;2022-08-23T03:09:08;99013.50;;;14.43;89.50
54389;BME280;40975;50.390;8.640;2022-08-23T03:11:34;99014.69;;;14.41;89.67
54389;BME280;40975;50.390;8.640;2022-08-23T03:14:00;99018.19;;;14.41;89.51
54389;BME280;40975;50.390;8.640;2022-08-23T03:16:27;99024.00;;;14.45;90.33
54389;BME280;40975;50.390;8.640;2022-08-23T03:18:53;99021.69;;;14.42;89.60
54389;BME280;40975;50.390;8.640;2022-08-23T03:21:20;99008.69;;;14.39;90.71
54389;BME280;40975;50.390;8.640;2022-08-23T03:23:46;99020.88;;;14.33;90.78
54389;BME280;40975;50.390;8.640;2022-08-23T03:26:14;99012.56;;;14.28;91.66
54389;BME280;40975;50.390;8.640;2022-08-23T03:28:42;99016.59;;;14.24;92.38
54389;BME280;40975;50.390;8.640;2022-08-23T03:31:09;99019.78;;;14.19;92.63
54389;BME280;40975;50.390;8.640;2022-08-23T03:33:45;99025.28;;;14.18;93.01
54389;BME280;40975;50.390;8.640;2022-08-23T03:36:11;99018.59;;;14.22;92.86
54389;BME280;40975;50.390;8.640;2022-08-23T03:38:37;99022.44;;;14.19;92.37
54389;BME280;40975;50.390;8.640;2022-08-23T03:41:06;99025.13;;;14.19;92.78
54389;BME280;40975;50.390;8.640;2022-08-23T03:43:32;99022.47;;;14.11;93.31
54389;BME280;40975;50.390;8.640;2022-08-23T03:45:58;99031.97;;;14.13;93.34
54389;BME280;40975;50.390;8.640;2022-08-23T03:48:23;99027.97;;;14.09;93.86
54389;BME280;40975;50.390;8.640;2022-08-23T03:50:49;99031.50;;;14.10;95.17
54389;BME280;40975;50.390;8.640;2022-08-23T03:53:15;99033.81;;;14.05;95.10
54389;BME280;40975;50.390;8.640;2022-08-23T03:55:42;99036.66;;;14.11;94.10
54389;BME280;40975;50.390;8.640;2022-08-23T03:58:13;99033.50;;;14.08;94.08
54389;BME280;40975;50.390;8.640;2022-08-23T04:00:38;99044.84;;;14.02;94.34
54389;BME280;40975;50.390;8.640;2022-08-23T04:03:04;99042.69;;;13.97;95.00
54389;BME280;40975;50.390;8.640;2022-08-23T04:05:35;99044.84;;;13.93;95.62
54389;BME280;40975;50.390;8.640;2022-08-23T04:08:08;99046.22;;;13.89;97.08
54389;BME280;40975;50.390;8.640;2022-08-23T04:10:35;99045.88;;;13.92;96.97
54389;BME280;40975;50.390;8.640;2022-08-23T04:13:00;99051.38;;;13.91;95.75
54389;BME280;40975;50.390;8.640;2022-08-23T04:15:26;99045.72;;;13.86;96.50
54389;BME280;40975;50.390;8.640;2022-08-23T04:17:51;99049.72;;;13.81;97.64
54389;BME280;40975;50.390;8.640;2022-08-23T04:20:17;99049.22;;;13.78;97.90
54389;BME280;40975;50.390;8.640;2022-08-23T04:22:52;99052.41;;;13.73;98.17
54389;BME280;40975;50.390;8.640;2022-08-23T04:25:20;99058.56;;;13.74;98.63
54389;BME280;40975;50.390;8.640;2022-08-23T04:27:46;99057.75;;;13.73;99.07
54389;BME280;40975;50.390;8.640;2022-08-23T04:30:12;99053.88;;;13.76;98.62
54389;BME280;40975;50.390;8.640;2022-08-23T04:32:38;99059.41;;;13.74;99.35
54389;BME280;40975;50.390;8.640;2022-08-23T04:35:05;99051.41;;;13.74;99.05
54389;BME280;40975;50.390;8.640;2022-08-23T04:37:31;99055.06;;;13.81;98.98
54389;BME280;40975;50.390;8.640;2022-08-23T04:39:56;99062.38;;;13.79;99.07
54389;BME280;40975;50.390;8.640;2022-08-23T04:42:41;99066.72;;;13.72;100.00
54389;BME280;40975;50.390;8.640;2022-08-23T04:45:08;99065.91;;;13.72;100.00
54389;BME280;40975;50.390;8.640;2022-08-23T04:47:35;99070.06;;;13.74;100.00
54389;BME280;40975;50.390;8.640;2022-08-23T04:50:06;99062.72;;;13.84;99.85
54389;BME280;40975;50.390;8.640;2022-08-23T04:52:32;99072.41;;;13.86;99.75
54389;BME280;40975;50.390;8.640;2022-08-23T04:54:58;99071.41;;;13.87;100.00
54389;BME280;40975;50.390;8.640;2022-08-23T04:57:39;99065.91;;;13.80;100.00
54389;BME280;40975;50.390;8.640;2022-08-23T05:00:07;99077.91;;;13.92;100.00
54389;BME280;40975;50.390;8.640;2022-08-23T05:02:37;99078.88;;;13.99;100.00
54389;BME280;40975;50.390;8.640;2022-08-23T05:05:03;99072.19;;;13.95;100.00
54389;BME280;40975;50.390;8.640;2022-08-23T05:07:29;99082.22;;;14.02;100.00
54389;BME280;40975;50.390;8.640;2022-08-23T05:09:56;99085.69;;;14.02;100.00
54389;BME280;40975;50.390;8.640;2022-08-23T05:12:21;99085.19;;;14.07;100.00
54389;BME280;40975;50.390;8.640;2022-08-23T05:14:47;99087.69;;;14.08;100.00
54389;BME280;40975;50.390;8.640;2022-08-23T05:17:13;99086.16;;;14.14;100.00
54389;BME280;40975;50.390;8.640;2022-08-23T05:19:38;99090.00;;;14.20;100.00
54389;BME280;40975;50.390;8.640;2022-08-23T05:22:03;99092.31;;;14.23;100.00
54389;BME280;40975;50.390;8.640;2022-08-23T05:24:49;99096.13;;;14.37;100.00
54389;BME280;40975;50.390;8.640;2022-08-23T05:27:14;99096.56;;;14.49;100.00
54389;BME280;40975;50.390;8.640;2022-08-23T05:29:39;99097.72;;;14.54;98.86
54389;BME280;40975;50.390;8.640;2022-08-23T05:32:05;99103.38;;;14.68;99.09
54389;BME280;40975;50.390;8.640;2022-08-23T05:34:31;99109.16;;;14.80;98.55
54389;BME280;40975;50.390;8.640;2022-08-23T05:36:57;99106.97;;;14.91;97.53
54389;BME280;40975;50.390;8.640;2022-08-23T05:39:29;99109.06;;;15.04;98.15
54389;BME280;40975;50.390;8.640;2022-08-23T05:41:55;99105.78;;;15.17;97.76
54389;BME280;40975;50.390;8.640;2022-08-23T05:44:20;99116.91;;;15.29;97.02
54389;BME280;40975;50.390;8.640;2022-08-23T05:46:46;99107.47;;;15.42;96.82
54389;BME280;40975;50.390;8.640;2022-08-23T05:49:21;99108.72;;;15.54;96.15
54389;BME280;40975;50.390;8.640;2022-08-23T05:51:48;99116.97;;;15.67;96.06
54389;BME280;40975;50.390;8.640;2022-08-23T05:54:14;99122.34;;;15.82;94.78
54389;BME280;40975;50.390;8.640;2022-08-23T05:56:41;99125.94;;;15.98;94.45
54389;BME280;40975;50.390;8.640;2022-08-23T05:59:12;99128.19;;;16.09;94.26
54389;BME280;40975;50.390;8.640;2022-08-23T06:01:40;99129.00;;;16.25;95.71
54389;BME280;40975;50.390;8.640;2022-08-23T06:04:12;99135.78;;;16.36;94.72
54389;BME280;40975;50.390;8.640;2022-08-23T06:06:40;99134.78;;;16.52;95.84
54389;BME280;40975;50.390;8.640;2022-08-23T06:09:08;99129.94;;;16.62;94.33
54389;BME280;40975;50.390;8.640;2022-08-23T06:11:36;99138.63;;;16.79;91.14
54389;BME280;40975;50.390;8.640;2022-08-23T06:14:05;99131.53;;;17.01;87.29
54389;BME280;40975;50.390;8.640;2022-08-23T06:16:34;99136.72;;;17.24;85.52
54389;BME280;40975;50.390;8.640;2022-08-23T06:19:01;99139.59;;;17.45;84.74
54389;BME280;40975;50.390;8.640;2022-08-23T06:21:51;99128.50;;;17.69;83.36
54389;BME280;40975;50.390;8.640;2022-08-23T06:24:22;99139.41;;;17.90;81.47
54389;BME280;40975;50.390;8.640;2022-08-23T06:26:52;99132.31;;;18.03;79.23
54389;BME280;40975;50.390;8.640;2022-08-23T06:29:18;99139.50;;;18.25;78.38
54389;BME280;40975;50.390;8.640;2022-08-23T06:31:49;99146.06;;;18.51;78.07
54389;BME280;40975;50.390;8.640;2022-08-23T06:34:34;99140.59;;;18.72;77.45
54389;BME280;40975;50.390;8.640;2022-08-23T06:37:16;99145.09;;;19.00;75.70
54389;BME280;40975;50.390;8.640;2022-08-23T06:40:00;99145.44;;;19.39;74.69
54389;BME280;40975;50.390;8.640;2022-08-23T06:42:43;99145.72;;;19.91;70.92
54389;BME280;40975;50.390;8.640;2022-08-23T06:45:09;99140.47;;;20.43;69.69
54389;BME280;40975;50.390;8.640;2022-08-23T06:47:41;99141.34;;;21.09;65.44
54389;BME280;40975;50.390;8.640;2022-08-23T06:50:07;99126.78;;;22.07;60.94
54389;BME280;40975;50.390;8.640;2022-08-23T06:53:02;99139.19;;;23.44;54.82
54389;BME280;40975;50.390;8.640;2022-08-23T06:55:43;99135.63;;;24.81;50.64
54389;BME280;40975;50.390;8.640;2022-08-23T06:58:15;99148.56;;;25.32;48.90
54389;BME280;40975;50.390;8.640;2022-08-23T07:01:55;99135.25;;;25.94;47.36
54389;BME280;40975;50.390;8.640;2022-08-23T07:04:08;99139.47;;;26.58;45.97
54389;BME280;40975;50.390;8.640;2022-08-23T07:07:03;99140.22;;;26.53;45.83
54389;BME280;40975;50.390;8.640;2022-08-23T07:09:30;99145.28;;;25.59;47.72
54389;BME280;40975;50.390;8.640;2022-08-23T07:11:57;99148.41;;;25.10;48.65
54389;BME280;40975;50.390;8.640;2022-08-23T07:14:24;99144.22;;;24.90;49.10
54389;BME280;40975;50.390;8.640;2022-08-23T07:16:52;99142.28;;;25.43;48.82
54389;BME280;40975;50.390;8.640;2022-08-23T07:19:21;99146.59;;;25.73;46.51
54389;BME280;40975;50.390;8.640;2022-08-23T07:21:47;99142.34;;;25.95;45.85
54389;BME280;40975;50.390;8.640;2022-08-23T07:24:13;99157.38;;;25.51;47.10
54389;BME280;40975;50.390;8.640;2022-08-23T07:26:40;99151.78;;;24.88;48.29
54389;BME280;40975;50.390;8.640;2022-08-23T07:29:09;99151.97;;;25.85;47.50
54389;BME280;40975;50.390;8.640;2022-08-23T07:31:42;99156.19;;;26.66;44.91
54389;BME280;40975;50.390;8.640;2022-08-23T07:34:09;99153.19;;;26.68;45.35
54389;BME280;40975;50.390;8.640;2022-08-23T07:36:39;99150.19;;;26.87;44.21
54389;BME280;40975;50.390;8.640;2022-08-23T07:39:05;99152.38;;;25.77;46.36
54389;BME280;40975;50.390;8.640;2022-08-23T07:41:32;99154.25;;;25.30;47.69
54389;BME280;40975;50.390;8.640;2022-08-23T07:44:02;99155.19;;;24.95;49.35
54389;BME280;40975;50.390;8.640;2022-08-23T07:46:30;99146.63;;;24.75;49.84
54389;BME280;40975;50.390;8.640;2022-08-23T07:48:58;99155.25;;;24.36;49.91
54389;BME280;40975;50.390;8.640;2022-08-23T07:51:32;99155.84;;;24.74;49.29
54389;BME280;40975;50.390;8.640;2022-08-23T07:54:00;99156.88;;;24.84;48.32
54389;BME280;40975;50.390;8.640;2022-08-23T07:56:26;99159.41;;;26.24;45.71
54389;BME280;40975;50.390;8.640;2022-08-23T07:58:59;99162.38;;;27.51;42.97
54389;BME280;40975;50.390;8.640;2022-08-23T08:01:33;99159.88;;;27.76;41.76
54389;BME280;40975;50.390;8.640;2022-08-23T08:04:00;99159.53;;;28.33;39.50
54389;BME280;40975;50.390;8.640;2022-08-23T08:06:37;99152.00;;;29.04;38.47
54389;BME280;40975;50.390;8.640;2022-08-23T08:09:04;99160.63;;;30.16;36.27
54389;BME280;40975;50.390;8.640;2022-08-23T08:11:32;99155.88;;;30.73;35.57
54389;BME280;40975;50.390;8.640;2022-08-23T08:14:02;99159.38;;;30.89;35.09
54389;BME280;40975;50.390;8.640;2022-08-23T08:16:31;99157.31;;;30.55;34.92
54389;BME280;40975;50.390;8.640;2022-08-23T08:19:01;99167.09;;;31.37;34.78
54389;BME280;40975;50.390;8.640;2022-08-23T08:21:50;99164.94;;;31.79;33.98
54389;BME280;40975;50.390;8.640;2022-08-23T08:24:47;99166.41;;;31.61;33.35
54389;BME280;40975;50.390;8.640;2022-08-23T08:27:13;99171.09;;;31.55;33.49
54389;BME280;40975;50.390;8.640;2022-08-23T08:29:39;99169.03;;;31.76;33.32
54389;BME280;40975;50.390;8.640;2022-08-23T08:32:06;99172.66;;;32.36;32.27
54389;BME280;40975;50.390;8.640;2022-08-23T08:34:33;99176.03;;;33.25;31.58
54389;BME280;40975;50.390;8.640;2022-08-23T08:36:59;99180.34;;;33.31;31.28
54389;BME280;40975;50.390;8.640;2022-08-23T08:39:29;99170.47;;;33.87;29.68
54389;BME280;40975;50.390;8.640;2022-08-23T08:42:08;99179.81;;;34.05;30.44
54389;BME280;40975;50.390;8.640;2022-08-23T08:56:19;99173.75;;;35.20;29.18
54389;BME280;40975;50.390;8.640;2022-08-23T08:58:51;99175.00;;;34.86;28.48
54389;BME280;40975;50.390;8.640;2022-08-23T09:01:18;99176.97;;;35.36;28.40
54389;BME280;40975;50.390;8.640;2022-08-23T09:03:45;99177.03;;;35.59;28.28
54389;BME280;40975;50.390;8.640;2022-08-23T09:06:49;99178.78;;;35.04;28.37
54389;BME280;40975;50.390;8.640;2022-08-23T09:09:40;99175.69;;;35.20;28.47
54389;BME280;40975;50.390;8.640;2022-08-23T09:17:23;99179.94;;;35.54;27.80
54389;BME280;40975;50.390;8.640;2022-08-23T09:19:56;99175.13;;;36.05;27.81
54389;BME280;40975;50.390;8.640;2022-08-23T09:22:32;99189.69;;;36.51;26.85
54389;BME280;40975;50.390;8.640;2022-08-23T09:24:59;99185.47;;;36.53;26.98
54389;BME280;40975;50.390;8.640;2022-08-23T09:27:32;99180.00;;;36.71;26.80
54389;BME280;40975;50.390;8.640;2022-08-23T09:29:59;99179.00;;;37.07;26.35
54389;BME280;40975;50.390;8.640;2022-08-23T09:32:33;99174.09;;;37.04;26.21
54389;BME280;40975;50.390;8.640;2022-08-23T09:35:18;99170.16;;;38.19;25.84
54389;BME280;40975;50.390;8.640;2022-08-23T09:37:52;99178.19;;;38.03;25.54
54389;BME280;40975;50.390;8.640;2022-08-23T09:40:45;99164.66;;;37.84;25.72
54389;BME280;40975;50.390;8.640;2022-08-23T09:45:54;99176.72;;;37.79;25.58
54389;BME280;40975;50.390;8.640;2022-08-23T09:48:37;99171.22;;;37.44;25.17
54389;BME280;40975;50.390;8.640;2022-08-23T09:53:47;99163.88;;;37.31;25.74
54389;BME280;40975;50.390;8.640;2022-08-23T09:56:22;99161.34;;;38.26;25.08
54389;BME280;40975;50.390;8.640;2022-08-23T09:58:49;99153.84;;;38.26;25.31
54389;BME280;40975;50.390;8.640;2022-08-23T10:01:34;99161.72;;;37.10;25.90
54389;BME280;40975;50.390;8.640;2022-08-23T10:09:45;99152.00;;;37.39;25.72
54389;BME280;40975;50.390;8.640;2022-08-23T10:12:11;99153.59;;;37.14;25.62
54389;BME280;40975;50.390;8.640;2022-08-23T10:14:37;99147.91;;;37.01;26.01
54389;BME280;40975;50.390;8.640;2022-08-23T10:22:43;99148.88;;;36.48;26.80
54389;BME280;40975;50.390;8.640;2022-08-23T10:25:27;99150.50;;;36.98;26.26
54389;BME280;40975;50.390;8.640;2022-08-23T10:28:18;99148.59;;;37.60;25.55
54389;BME280;40975;50.390;8.640;2022-08-23T10:31:13;99145.81;;;37.25;26.04
54389;BME280;40975;50.390;8.640;2022-08-23T10:36:33;99139.50;;;37.42;26.30
54389;BME280;40975;50.390;8.640;2022-08-23T10:39:11;99141.19;;;35.82;27.30
54389;BME280;40975;50.390;8.640;2022-08-23T10:41:58;99147.88;;;36.44;26.58
54389;BME280;40975;50.390;8.640;2022-08-23T10:44:33;99146.00;;;36.30;26.69
54389;BME280;40975;50.390;8.640;2022-08-23T10:50:00;99137.97;;;35.43;28.13
54389;BME280;40975;50.390;8.640;2022-08-23T10:52:33;99128.78;;;35.33;28.15
54389;BME280;40975;50.390;8.640;2022-08-23T10:55:06;99123.28;;;34.55;28.61
54389;BME280;40975;50.390;8.640;2022-08-23T10:57:44;99121.91;;;35.08;29.16
54389;BME280;40975;50.390;8.640;2022-08-23T11:00:24;99126.63;;;34.80;29.26
54389;BME280;40975;50.390;8.640;2022-08-23T11:03:10;99121.75;;;33.88;29.98
54389;BME280;40975;50.390;8.640;2022-08-23T11:05:38;99114.47;;;34.25;29.16
54389;BME280;40975;50.390;8.640;2022-08-23T11:08:32;99110.63;;;32.59;31.50
54389;BME280;40975;50.390;8.640;2022-08-23T11:11:00;99107.59;;;33.04;30.97
54389;BME280;40975;50.390;8.640;2022-08-23T11:13:31;99113.31;;;32.89;31.32
54389;BME280;40975;50.390;8.640;2022-08-23T11:16:13;99106.13;;;33.12;31.21
54389;BME280;40975;50.390;8.640;2022-08-23T11:18:44;99112.44;;;33.84;30.53
54389;BME280;40975;50.390;8.640;2022-08-23T11:28:53;99106.00;;;33.55;30.78
54389;BME280;40975;50.390;8.640;2022-08-23T11:31:26;99094.84;;;33.66;31.01
54389;BME280;40975;50.390;8.640;2022-08-23T11:34:19;99100.03;;;33.86;30.29
54389;BME280;40975;50.390;8.640;2022-08-23T11:42:24;99092.13;;;33.27;30.09
54389;BME280;40975;50.390;8.640;2022-08-23T11:44:51;99094.81;;;33.32;30.46
54389;BME280;40975;50.390;8.640;2022-08-23T11:47:38;99097.13;;;32.63;30.80
54389;BME280;40975;50.390;8.640;2022-08-23T11:50:21;99094.28;;;33.11;30.91
54389;BME280;40975;50.390;8.640;2022-08-23T11:53:18;99079.84;;;32.38;31.03
54389;BME280;40975;50.390;8.640;2022-08-23T11:56:11;99088.59;;;32.89;31.02
54389;BME280;40975;50.390;8.640;2022-08-23T12:01:42;99077.22;;;33.14;31.16
54389;BME280;40975;50.390;8.640;2022-08-23T12:04:11;99080.28;;;32.21;31.37
54389;BME280;40975;50.390;8.640;2022-08-23T12:06:54;99083.28;;;32.19;31.42
54389;BME280;40975;50.390;8.640;2022-08-23T12:17:01;99080.75;;;33.15;30.25
54389;BME280;40975;50.390;8.640;2022-08-23T12:19:33;99071.19;;;33.31;30.14
54389;BME280;40975;50.390;8.640;2022-08-23T12:22:15;99076.97;;;32.92;30.37
54389;BME280;40975;50.390;8.640;2022-08-23T12:25:00;99069.84;;;33.10;29.77
54389;BME280;40975;50.390;8.640;2022-08-23T12:27:34;99071.78;;;33.28;29.81
54389;BME280;40975;50.390;8.640;2022-08-23T12:32:56;99075.66;;;32.89;30.35
54389;BME280;40975;50.390;8.640;2022-08-23T12:40:47;99062.28;;;32.82;31.18
54389;BME280;40975;50.390;8.640;2022-08-23T12:45:40;99065.69;;;33.12;29.06
54389;BME280;40975;50.390;8.640;2022-08-23T12:48:08;99059.28;;;33.17;29.18
54389;BME280;40975;50.390;8.640;2022-08-23T12:50:38;99060.78;;;33.47;28.93
54389;BME280;40975;50.390;8.640;2022-08-23T12:53:12;99066.84;;;33.25;28.42
54389;BME280;40975;50.390;8.640;2022-08-23T12:55:47;99061.19;;;33.02;28.97
54389;BME280;40975;50.390;8.640;2022-08-23T12:58:15;99064.03;;;33.30;28.24
54389;BME280;40975;50.390;8.640;2022-08-23T13:00:56;99063.72;;;32.99;29.03
54389;BME280;40975;50.390;8.640;2022-08-23T13:05:55;99066.91;;;33.06;28.77
54389;BME280;40975;50.390;8.640;2022-08-23T13:08:47;99058.06;;;32.90;28.57
54389;BME280;40975;50.390;8.640;2022-08-23T13:11:18;99064.22;;;32.58;29.50
54389;BME280;40975;50.390;8.640;2022-08-23T13:13:44;99057.81;;;31.89;29.25
54389;BME280;40975;50.390;8.640;2022-08-23T13:18:54;99059.19;;;31.23;30.21
54389;BME280;40975;50.390;8.640;2022-08-23T13:21:27;99052.56;;;30.84;30.82
54389;BME280;40975;50.390;8.640;2022-08-23T13:23:56;99052.97;;;31.12;30.70
54389;BME280;40975;50.390;8.640;2022-08-23T13:26:38;99050.97;;;31.57;30.24
54389;BME280;40975;50.390;8.640;2022-08-23T13:37:13;99030.84;;;31.67;29.76
54389;BME280;40975;50.390;8.640;2022-08-23T13:39:44;99030.31;;;31.70;30.39
54389;BME280;40975;50.390;8.640;2022-08-23T13:42:10;99029.13;;;32.06;30.53
54389;BME280;40975;50.390;8.640;2022-08-23T13:44:36;99033.28;;;31.74;29.49
54389;BME280;40975;50.390;8.640;2022-08-23T13:47:01;99035.25;;;31.98;29.66
54389;BME280;40975;50.390;8.640;2022-08-23T13:49:27;99023.19;;;31.99;29.89
54389;BME280;40975;50.390;8.640;2022-08-23T13:54:25;99028.47;;;31.90;29.64
54389;BME280;40975;50.390;8.640;2022-08-23T13:57:20;99026.25;;;31.92;29.39
54389;BME280;40975;50.390;8.640;2022-08-23T13:59:49;99027.03;;;31.68;29.76
54389;BME280;40975;50.390;8.640;2022-08-23T14:02:16;99029.66;;;31.14;30.12
54389;BME280;40975;50.390;8.640;2022-08-23T14:04:42;99037.22;;;31.28;30.15
54389;BME280;40975;50.390;8.640;2022-08-23T14:07:09;99032.22;;;31.70;30.00
54389;BME280;40975;50.390;8.640;2022-08-23T14:09:35;99037.47;;;31.96;29.44
54389;BME280;40975;50.390;8.640;2022-08-23T14:12:06;99030.16;;;31.86;29.76
54389;BME280;40975;50.390;8.640;2022-08-23T14:14:32;99028.47;;;31.90;29.45
54389;BME280;40975;50.390;8.640;2022-08-23T14:16:58;99006.56;;;31.55;30.00
54389;BME280;40975;50.390;8.640;2022-08-23T14:19:24;99010.25;;;31.06;30.15
54389;BME280;40975;50.390;8.640;2022-08-23T14:21:50;99023.56;;;30.78;30.20
54389;BME280;40975;50.390;8.640;2022-08-23T14:24:15;99026.97;;;30.54;30.13
54389;BME280;40975;50.390;8.640;2022-08-23T14:26:41;99022.34;;;30.44;30.77
54389;BME280;40975;50.390;8.640;2022-08-23T14:29:06;99019.28;;;30.51;30.37
54389;BME280;40975;50.390;8.640;2022-08-23T14:31:33;99023.19;;;30.34;30.84
54389;BME280;40975;50.390;8.640;2022-08-23T14:33:58;99020.84;;;30.12;30.87
54389;BME280;40975;50.390;8.640;2022-08-23T14:36:24;99024.41;;;29.87;30.85
54389;BME280;40975;50.390;8.640;2022-08-23T14:38:49;99023.81;;;30.11;31.27
54389;BME280;40975;50.390;8.640;2022-08-23T14:41:21;99026.81;;;30.24;30.89
54389;BME280;40975;50.390;8.640;2022-08-23T14:43:47;99027.34;;;30.27;30.65
54389;BME280;40975;50.390;8.640;2022-08-23T14:46:13;99022.34;;;30.44;30.48
54389;BME280;40975;50.390;8.640;2022-08-23T14:48:39;99026.78;;;30.30;30.81
54389;BME280;40975;50.390;8.640;2022-08-23T14:51:04;99027.63;;;30.20;30.95
54389;BME280;40975;50.390;8.640;2022-08-23T14:53:33;99021.13;;;30.00;31.11